sensor_id;sensor_type;location;lat;lon;timestamp;P1;durP1;ratioP1;P2;durP2;ratioP2
52188;SDS011;38162;45.926;13.608;2023-04-06T00:01:40;8.80;;;3.13;;
52188;SDS011;38162;45.926;13.608;2023-04-06T00:04:06;7.27;;;3.10;;
52188;SDS011;38162;45.926;13.608;2023-04-06T00:06:33;5.40;;;3.20;;
52188;SDS011;38162;45.926;13.608;2023-04-06T00:08:59;9.00;;;3.17;;
52188;SDS011;38162;45.926;13.608;2023-04-06T00:11:26;8.90;;;3.60;;
52188;SDS011;38162;45.926;13.608;2023-04-06T00:13:52;5.07;;;2.83;;
52188;SDS011;38162;45.926;13.608;2023-04-06T00:16:19;11.40;;;3.00;;
52188;SDS011;38162;45.926;13.608;2023-04-06T00:18:45;5.67;;;3.40;;
52188;SDS011;38162;45.926;13.608;2023-04-06T00:21:11;7.57;;;3.83;;
52188;SDS011;38162;45.926;13.608;2023-04-06T00:23:38;11.03;;;3.90;;
52188;SDS011;38162;45.926;13.608;2023-04-06T00:26:04;12.20;;;3.57;;
52188;SDS011;38162;45.926;13.608;2023-04-06T00:28:30;6.13;;;3.10;;
52188;SDS011;38162;45.926;13.608;2023-04-06T00:30:56;6.13;;;2.80;;
52188;SDS011;38162;45.926;13.608;2023-04-06T00:33:23;5.63;;;2.87;;
52188;SDS011;38162;45.926;13.608;2023-04-06T00:35:49;7.43;;;3.13;;
52188;SDS011;38162;45.926;13.608;2023-04-06T00:38:16;9.57;;;3.27;;
52188;SDS011;38162;45.926;13.608;2023-04-06T00:40:42;6.83;;;3.23;;
52188;SDS011;38162;45.926;13.608;2023-04-06T00:43:12;6.30;;;3.00;;
52188;SDS011;38162;45.926;13.608;2023-04-06T00:45:39;8.70;;;3.80;;
52188;SDS011;38162;45.926;13.608;2023-04-06T00:48:05;10.50;;;3.87;;
52188;SDS011;38162;45.926;13.608;2023-04-06T00:50:32;10.27;;;3.40;;
52188;SDS011;38162;45.926;13.608;2023-04-06T00:52:58;6.50;;;3.30;;
52188;SDS011;38162;45.926;13.608;2023-04-06T00:55:25;7.87;;;3.30;;
52188;SDS011;38162;45.926;13.608;2023-04-06T00:57:51;7.27;;;3.40;;
52188;SDS011;38162;45.926;13.608;2023-04-06T01:00:17;14.10;;;3.50;;
52188;SDS011;38162;45.926;13.608;2023-04-06T01:02:44;6.90;;;3.30;;
52188;SDS011;38162;45.926;13.608;2023-04-06T01:05:11;8.30;;;3.30;;
52188;SDS011;38162;45.926;13.608;2023-04-06T01:07:37;7.60;;;3.37;;
52188;SDS011;38162;45.926;13.608;2023-04-06T01:10:03;9.97;;;3.10;;
52188;SDS011;38162;45.926;13.608;2023-04-06T01:12:30;9.13;;;3.63;;
52188;SDS011;38162;45.926;13.608;2023-04-06T01:14:56;5.70;;;3.23;;
52188;SDS011;38162;45.926;13.608;2023-04-06T01:17:22;6.90;;;3.30;;
52188;SDS011;38162;45.926;13.608;2023-04-06T01:19:48;9.83;;;3.10;;
52188;SDS011;38162;45.926;13.608;2023-04-06T01:22:16;21.00;;;3.90;;
52188;SDS011;38162;45.926;13.608;2023-04-06T01:24:42;7.27;;;3.10;;
52188;SDS011;38162;45.926;13.608;2023-04-06T01:27:08;7.10;;;3.43;;
52188;SDS011;38162;45.926;13.608;2023-04-06T01:29:34;7.97;;;3.10;;
52188;SDS011;38162;45.926;13.608;2023-04-06T01:32:00;10.57;;;3.10;;
52188;SDS011;38162;45.926;13.608;2023-04-06T01:34:26;12.67;;;3.93;;
52188;SDS011;38162;45.926;13.608;2023-04-06T01:36:52;6.73;;;3.30;;
52188;SDS011;38162;45.926;13.608;2023-04-06T01:39:19;5.47;;;2.83;;
52188;SDS011;38162;45.926;13.608;2023-04-06T01:41:45;6.10;;;3.37;;
52188;SDS011;38162;45.926;13.608;2023-04-06T01:44:16;9.27;;;3.87;;
52188;SDS011;38162;45.926;13.608;2023-04-06T01:46:43;9.50;;;3.20;;
52188;SDS011;38162;45.926;13.608;2023-04-06T01:49:10;7.77;;;3.20;;
52188;SDS011;38162;45.926;13.608;2023-04-06T01:51:36;5.77;;;3.27;;
52188;SDS011;38162;45.926;13.608;2023-04-06T01:54:03;8.00;;;2.90;;
52188;SDS011;38162;45.926;13.608;2023-04-06T01:56:29;6.00;;;3.13;;
52188;SDS011;38162;45.926;13.608;2023-04-06T01:58:55;6.93;;;3.47;;
52188;SDS011;38162;45.926;13.608;2023-04-06T02:01:21;11.83;;;3.77;;
52188;SDS011;38162;45.926;13.608;2023-04-06T02:03:47;5.33;;;3.60;;
52188;SDS011;38162;45.926;13.608;2023-04-06T02:06:13;6.40;;;3.47;;
52188;SDS011;38162;45.926;13.608;2023-04-06T02:08:40;7.43;;;3.53;;
52188;SDS011;38162;45.926;13.608;2023-04-06T02:11:06;7.73;;;3.13;;
52188;SDS011;38162;45.926;13.608;2023-04-06T02:13:32;7.17;;;3.47;;
52188;SDS011;38162;45.926;13.608;2023-04-06T02:15:58;6.10;;;2.77;;
52188;SDS011;38162;45.926;13.608;2023-04-06T02:18:24;9.77;;;2.90;;
52188;SDS011;38162;45.926;13.608;2023-04-06T02:20:50;7.03;;;3.37;;
52188;SDS011;38162;45.926;13.608;2023-04-06T02:23:16;6.17;;;3.37;;
52188;SDS011;38162;45.926;13.608;2023-04-06T02:25:43;6.27;;;2.83;;
52188;SDS011;38162;45.926;13.608;2023-04-06T02:28:09;7.80;;;3.50;;
52188;SDS011;38162;45.926;13.608;2023-04-06T02:30:35;8.90;;;3.30;;
52188;SDS011;38162;45.926;13.608;2023-04-06T02:33:01;7.43;;;2.90;;
52188;SDS011;38162;45.926;13.608;2023-04-06T02:35:28;9.53;;;3.43;;
52188;SDS011;38162;45.926;13.608;2023-04-06T02:37:54;6.30;;;3.70;;
52188;SDS011;38162;45.926;13.608;2023-04-06T02:40:20;10.90;;;3.07;;
52188;SDS011;38162;45.926;13.608;2023-04-06T02:42:46;6.73;;;3.10;;
52188;SDS011;38162;45.926;13.608;2023-04-06T02:45:12;8.03;;;3.37;;
52188;SDS011;38162;45.926;13.608;2023-04-06T02:47:38;6.40;;;2.87;;
52188;SDS011;38162;45.926;13.608;2023-04-06T02:50:05;5.67;;;2.93;;
52188;SDS011;38162;45.926;13.608;2023-04-06T02:52:31;7.10;;;3.13;;
52188;SDS011;38162;45.926;13.608;2023-04-06T02:54:59;5.63;;;3.00;;
52188;SDS011;38162;45.926;13.608;2023-04-06T02:57:25;6.53;;;3.37;;
52188;SDS011;38162;45.926;13.608;2023-04-06T02:59:51;6.00;;;2.87;;
52188;SDS011;38162;45.926;13.608;2023-04-06T03:02:17;8.00;;;3.60;;
52188;SDS011;38162;45.926;13.608;2023-04-06T03:04:43;8.40;;;3.40;;
52188;SDS011;38162;45.926;13.608;2023-04-06T03:07:10;5.67;;;3.10;;
52188;SDS011;38162;45.926;13.608;2023-04-06T03:09:39;7.77;;;3.40;;
52188;SDS011;38162;45.926;13.608;2023-04-06T03:12:05;7.77;;;3.53;;
52188;SDS011;38162;45.926;13.608;2023-04-06T03:14:31;8.20;;;3.07;;
52188;SDS011;38162;45.926;13.608;2023-04-06T03:16:58;7.53;;;3.07;;
52188;SDS011;38162;45.926;13.608;2023-04-06T03:19:24;5.53;;;3.30;;
52188;SDS011;38162;45.926;13.608;2023-04-06T03:21:50;6.33;;;3.00;;
52188;SDS011;38162;45.926;13.608;2023-04-06T03:24:16;6.83;;;3.00;;
52188;SDS011;38162;45.926;13.608;2023-04-06T03:26:42;8.57;;;3.50;;
52188;SDS011;38162;45.926;13.608;2023-04-06T03:29:09;5.67;;;3.00;;
52188;SDS011;38162;45.926;13.608;2023-04-06T03:31:35;6.13;;;3.27;;
52188;SDS011;38162;45.926;13.608;2023-04-06T03:34:01;6.57;;;3.70;;
52188;SDS011;38162;45.926;13.608;2023-04-06T03:36:27;11.23;;;4.40;;
52188;SDS011;38162;45.926;13.608;2023-04-06T03:38:53;8.07;;;3.60;;
52188;SDS011;38162;45.926;13.608;2023-04-06T03:41:19;7.30;;;3.53;;
52188;SDS011;38162;45.926;13.608;2023-04-06T03:43:45;6.97;;;4.17;;
52188;SDS011;38162;45.926;13.608;2023-04-06T03:46:12;8.10;;;5.07;;
52188;SDS011;38162;45.926;13.608;2023-04-06T03:48:38;7.03;;;3.63;;
52188;SDS011;38162;45.926;13.608;2023-04-06T03:51:04;5.63;;;3.03;;
52188;SDS011;38162;45.926;13.608;2023-04-06T03:53:30;10.53;;;6.67;;
52188;SDS011;38162;45.926;13.608;2023-04-06T03:55:56;8.67;;;4.73;;
52188;SDS011;38162;45.926;13.608;2023-04-06T03:58:22;7.23;;;3.33;;
52188;SDS011;38162;45.926;13.608;2023-04-06T04:00:48;7.53;;;3.37;;
52188;SDS011;38162;45.926;13.608;2023-04-06T04:03:15;8.93;;;3.33;;
52188;SDS011;38162;45.926;13.608;2023-04-06T04:05:41;7.20;;;3.40;;
52188;SDS011;38162;45.926;13.608;2023-04-06T04:08:07;7.27;;;3.23;;
52188;SDS011;38162;45.926;13.608;2023-04-06T04:10:34;6.33;;;3.43;;
52188;SDS011;38162;45.926;13.608;2023-04-06T04:13:00;7.40;;;3.20;;
52188;SDS011;38162;45.926;13.608;2023-04-06T04:15:26;5.43;;;3.23;;
52188;SDS011;38162;45.926;13.608;2023-04-06T04:17:52;8.67;;;3.43;;
52188;SDS011;38162;45.926;13.608;2023-04-06T04:20:18;7.73;;;3.73;;
52188;SDS011;38162;45.926;13.608;2023-04-06T04:22:44;5.83;;;3.10;;
52188;SDS011;38162;45.926;13.608;2023-04-06T04:25:10;9.13;;;3.80;;
52188;SDS011;38162;45.926;13.608;2023-04-06T04:27:36;13.30;;;3.67;;
52188;SDS011;38162;45.926;13.608;2023-04-06T04:30:02;8.87;;;3.10;;
52188;SDS011;38162;45.926;13.608;2023-04-06T04:32:29;7.83;;;3.80;;
52188;SDS011;38162;45.926;13.608;2023-04-06T04:34:55;8.83;;;3.20;;
52188;SDS011;38162;45.926;13.608;2023-04-06T04:37:21;10.87;;;3.97;;
52188;SDS011;38162;45.926;13.608;2023-04-06T04:39:47;6.73;;;4.00;;
52188;SDS011;38162;45.926;13.608;2023-04-06T04:42:13;6.83;;;3.60;;
52188;SDS011;38162;45.926;13.608;2023-04-06T04:44:39;7.43;;;3.60;;
52188;SDS011;38162;45.926;13.608;2023-04-06T04:47:05;6.63;;;4.03;;
52188;SDS011;38162;45.926;13.608;2023-04-06T04:49:31;8.80;;;3.57;;
52188;SDS011;38162;45.926;13.608;2023-04-06T04:51:57;10.27;;;4.43;;
52188;SDS011;38162;45.926;13.608;2023-04-06T04:54:24;8.93;;;3.50;;
52188;SDS011;38162;45.926;13.608;2023-04-06T04:56:50;9.40;;;3.30;;
52188;SDS011;38162;45.926;13.608;2023-04-06T04:59:16;9.13;;;3.37;;
52188;SDS011;38162;45.926;13.608;2023-04-06T05:01:42;8.87;;;3.20;;
52188;SDS011;38162;45.926;13.608;2023-04-06T05:04:08;8.57;;;3.80;;
52188;SDS011;38162;45.926;13.608;2023-04-06T05:06:34;9.40;;;3.63;;
52188;SDS011;38162;45.926;13.608;2023-04-06T05:09:01;8.87;;;3.57;;
52188;SDS011;38162;45.926;13.608;2023-04-06T05:11:27;7.57;;;3.53;;
52188;SDS011;38162;45.926;13.608;2023-04-06T05:13:53;6.83;;;3.40;;
52188;SDS011;38162;45.926;13.608;2023-04-06T05:16:19;6.50;;;3.63;;
52188;SDS011;38162;45.926;13.608;2023-04-06T05:18:45;11.10;;;4.13;;
52188;SDS011;38162;45.926;13.608;2023-04-06T05:21:13;7.03;;;3.77;;
52188;SDS011;38162;45.926;13.608;2023-04-06T05:23:39;7.47;;;3.23;;
52188;SDS011;38162;45.926;13.608;2023-04-06T05:26:05;9.10;;;3.60;;
52188;SDS011;38162;45.926;13.608;2023-04-06T05:28:32;8.67;;;3.97;;
52188;SDS011;38162;45.926;13.608;2023-04-06T05:30:58;7.03;;;3.33;;
52188;SDS011;38162;45.926;13.608;2023-04-06T05:33:24;5.87;;;3.57;;
52188;SDS011;38162;45.926;13.608;2023-04-06T05:35:51;7.93;;;4.30;;
52188;SDS011;38162;45.926;13.608;2023-04-06T05:38:17;9.77;;;4.10;;
52188;SDS011;38162;45.926;13.608;2023-04-06T05:40:43;10.37;;;3.73;;
52188;SDS011;38162;45.926;13.608;2023-04-06T05:43:09;8.53;;;3.77;;
52188;SDS011;38162;45.926;13.608;2023-04-06T05:45:35;8.17;;;3.47;;
52188;SDS011;38162;45.926;13.608;2023-04-06T05:48:02;6.90;;;3.70;;
52188;SDS011;38162;45.926;13.608;2023-04-06T05:50:28;7.40;;;3.93;;
52188;SDS011;38162;45.926;13.608;2023-04-06T05:52:54;7.53;;;3.93;;
52188;SDS011;38162;45.926;13.608;2023-04-06T05:55:20;10.83;;;3.80;;
52188;SDS011;38162;45.926;13.608;2023-04-06T05:57:46;10.13;;;3.40;;
52188;SDS011;38162;45.926;13.608;2023-04-06T06:00:13;8.60;;;3.67;;
52188;SDS011;38162;45.926;13.608;2023-04-06T06:02:39;8.80;;;3.87;;
52188;SDS011;38162;45.926;13.608;2023-04-06T06:05:07;10.93;;;3.77;;
52188;SDS011;38162;45.926;13.608;2023-04-06T06:07:34;12.73;;;4.47;;
52188;SDS011;38162;45.926;13.608;2023-04-06T06:10:01;13.93;;;4.20;;
52188;SDS011;38162;45.926;13.608;2023-04-06T06:12:27;13.93;;;4.10;;
52188;SDS011;38162;45.926;13.608;2023-04-06T06:14:53;10.07;;;3.87;;
52188;SDS011;38162;45.926;13.608;2023-04-06T06:17:20;8.83;;;4.40;;
52188;SDS011;38162;45.926;13.608;2023-04-06T06:19:46;7.13;;;3.37;;
52188;SDS011;38162;45.926;13.608;2023-04-06T06:22:12;7.63;;;3.63;;
52188;SDS011;38162;45.926;13.608;2023-04-06T06:24:38;7.37;;;3.57;;
52188;SDS011;38162;45.926;13.608;2023-04-06T06:27:04;7.00;;;3.83;;
52188;SDS011;38162;45.926;13.608;2023-04-06T06:29:32;8.07;;;3.67;;
52188;SDS011;38162;45.926;13.608;2023-04-06T06:31:58;8.90;;;3.73;;
52188;SDS011;38162;45.926;13.608;2023-04-06T06:34:25;8.93;;;3.53;;
52188;SDS011;38162;45.926;13.608;2023-04-06T06:36:51;7.77;;;3.50;;
52188;SDS011;38162;45.926;13.608;2023-04-06T06:39:19;5.80;;;3.20;;
52188;SDS011;38162;45.926;13.608;2023-04-06T06:41:45;9.23;;;3.40;;
52188;SDS011;38162;45.926;13.608;2023-04-06T06:44:11;7.57;;;3.20;;
52188;SDS011;38162;45.926;13.608;2023-04-06T06:46:38;7.63;;;3.20;;
52188;SDS011;38162;45.926;13.608;2023-04-06T06:49:04;8.07;;;3.63;;
52188;SDS011;38162;45.926;13.608;2023-04-06T06:51:30;7.60;;;3.67;;
52188;SDS011;38162;45.926;13.608;2023-04-06T06:53:56;4.63;;;2.93;;
52188;SDS011;38162;45.926;13.608;2023-04-06T06:56:22;9.53;;;3.53;;
52188;SDS011;38162;45.926;13.608;2023-04-06T06:58:48;7.13;;;3.77;;
52188;SDS011;38162;45.926;13.608;2023-04-06T07:01:14;14.33;;;4.30;;
52188;SDS011;38162;45.926;13.608;2023-04-06T07:03:41;11.03;;;3.53;;
52188;SDS011;38162;45.926;13.608;2023-04-06T07:06:07;10.20;;;3.70;;
52188;SDS011;38162;45.926;13.608;2023-04-06T07:08:33;12.27;;;3.60;;
52188;SDS011;38162;45.926;13.608;2023-04-06T07:11:00;5.77;;;3.60;;
52188;SDS011;38162;45.926;13.608;2023-04-06T07:13:26;9.10;;;3.60;;
52188;SDS011;38162;45.926;13.608;2023-04-06T07:15:53;6.57;;;3.60;;
52188;SDS011;38162;45.926;13.608;2023-04-06T07:18:19;6.63;;;3.30;;
52188;SDS011;38162;45.926;13.608;2023-04-06T07:20:45;6.57;;;3.87;;
52188;SDS011;38162;45.926;13.608;2023-04-06T07:23:12;8.97;;;4.20;;
52188;SDS011;38162;45.926;13.608;2023-04-06T07:25:38;5.33;;;3.53;;
52188;SDS011;38162;45.926;13.608;2023-04-06T07:28:04;15.63;;;3.90;;
52188;SDS011;38162;45.926;13.608;2023-04-06T07:30:30;6.53;;;3.33;;
52188;SDS011;38162;45.926;13.608;2023-04-06T07:32:57;10.27;;;3.90;;
52188;SDS011;38162;45.926;13.608;2023-04-06T07:35:24;8.13;;;3.20;;
52188;SDS011;38162;45.926;13.608;2023-04-06T07:37:51;10.40;;;3.40;;
52188;SDS011;38162;45.926;13.608;2023-04-06T07:40:17;10.50;;;3.30;;
52188;SDS011;38162;45.926;13.608;2023-04-06T07:42:44;7.97;;;3.97;;
52188;SDS011;38162;45.926;13.608;2023-04-06T07:45:11;7.27;;;3.13;;
52188;SDS011;38162;45.926;13.608;2023-04-06T07:47:37;8.03;;;3.20;;
52188;SDS011;38162;45.926;13.608;2023-04-06T07:50:03;6.83;;;3.33;;
52188;SDS011;38162;45.926;13.608;2023-04-06T07:52:29;8.37;;;3.13;;
52188;SDS011;38162;45.926;13.608;2023-04-06T07:54:57;9.07;;;4.10;;
52188;SDS011;38162;45.926;13.608;2023-04-06T07:57:23;10.73;;;3.70;;
52188;SDS011;38162;45.926;13.608;2023-04-06T07:59:49;7.67;;;3.27;;
52188;SDS011;38162;45.926;13.608;2023-04-06T08:02:15;6.20;;;3.80;;
52188;SDS011;38162;45.926;13.608;2023-04-06T08:04:42;9.90;;;3.57;;
52188;SDS011;38162;45.926;13.608;2023-04-06T08:07:08;6.20;;;3.60;;
52188;SDS011;38162;45.926;13.608;2023-04-06T08:09:34;11.37;;;3.60;;
52188;SDS011;38162;45.926;13.608;2023-04-06T08:12:00;6.83;;;3.60;;
52188;SDS011;38162;45.926;13.608;2023-04-06T08:14:26;6.63;;;2.97;;
52188;SDS011;38162;45.926;13.608;2023-04-06T08:16:52;10.17;;;4.23;;
52188;SDS011;38162;45.926;13.608;2023-04-06T08:19:19;5.90;;;3.50;;
52188;SDS011;38162;45.926;13.608;2023-04-06T08:21:45;4.43;;;2.90;;
52188;SDS011;38162;45.926;13.608;2023-04-06T08:24:12;6.63;;;3.73;;
52188;SDS011;38162;45.926;13.608;2023-04-06T08:26:38;7.30;;;3.50;;
52188;SDS011;38162;45.926;13.608;2023-04-06T08:29:05;7.17;;;3.70;;
52188;SDS011;38162;45.926;13.608;2023-04-06T08:31:34;6.20;;;4.00;;
52188;SDS011;38162;45.926;13.608;2023-04-06T08:34:00;6.67;;;3.63;;
52188;SDS011;38162;45.926;13.608;2023-04-06T08:36:27;6.47;;;3.53;;
52188;SDS011;38162;45.926;13.608;2023-04-06T08:38:53;6.03;;;3.27;;
52188;SDS011;38162;45.926;13.608;2023-04-06T08:41:19;8.10;;;3.73;;
52188;SDS011;38162;45.926;13.608;2023-04-06T08:43:49;7.20;;;3.60;;
52188;SDS011;38162;45.926;13.608;2023-04-06T08:46:16;6.37;;;3.80;;
52188;SDS011;38162;45.926;13.608;2023-04-06T08:48:42;10.27;;;3.50;;
52188;SDS011;38162;45.926;13.608;2023-04-06T08:51:09;5.27;;;3.60;;
52188;SDS011;38162;45.926;13.608;2023-04-06T08:53:35;6.67;;;3.80;;
52188;SDS011;38162;45.926;13.608;2023-04-06T08:56:02;11.23;;;4.07;;
52188;SDS011;38162;45.926;13.608;2023-04-06T08:58:31;5.83;;;3.20;;
52188;SDS011;38162;45.926;13.608;2023-04-06T09:00:58;11.10;;;3.90;;
52188;SDS011;38162;45.926;13.608;2023-04-06T09:03:25;8.37;;;3.67;;
52188;SDS011;38162;45.926;13.608;2023-04-06T09:05:51;7.13;;;3.53;;
52188;SDS011;38162;45.926;13.608;2023-04-06T09:08:18;10.67;;;4.40;;
52188;SDS011;38162;45.926;13.608;2023-04-06T09:10:44;7.03;;;3.67;;
52188;SDS011;38162;45.926;13.608;2023-04-06T09:13:10;6.43;;;3.90;;
52188;SDS011;38162;45.926;13.608;2023-04-06T09:15:36;7.90;;;3.73;;
52188;SDS011;38162;45.926;13.608;2023-04-06T09:18:02;9.20;;;3.93;;
52188;SDS011;38162;45.926;13.608;2023-04-06T09:20:29;9.63;;;4.00;;
52188;SDS011;38162;45.926;13.608;2023-04-06T09:22:55;6.90;;;3.50;;
52188;SDS011;38162;45.926;13.608;2023-04-06T09:25:21;8.73;;;3.80;;
52188;SDS011;38162;45.926;13.608;2023-04-06T09:27:48;8.77;;;3.60;;
52188;SDS011;38162;45.926;13.608;2023-04-06T09:30:15;8.27;;;4.17;;
52188;SDS011;38162;45.926;13.608;2023-04-06T09:32:48;7.43;;;3.70;;
52188;SDS011;38162;45.926;13.608;2023-04-06T09:35:14;7.70;;;3.80;;
52188;SDS011;38162;45.926;13.608;2023-04-06T09:37:44;5.93;;;4.00;;
52188;SDS011;38162;45.926;13.608;2023-04-06T09:40:10;7.07;;;3.77;;
52188;SDS011;38162;45.926;13.608;2023-04-06T09:42:39;7.10;;;3.73;;
52188;SDS011;38162;45.926;13.608;2023-04-06T09:45:06;9.57;;;3.73;;
52188;SDS011;38162;45.926;13.608;2023-04-06T09:47:32;7.30;;;4.10;;
52188;SDS011;38162;45.926;13.608;2023-04-06T09:49:59;7.57;;;3.97;;
52188;SDS011;38162;45.926;13.608;2023-04-06T09:52:26;5.30;;;3.55;;
52188;SDS011;38162;45.926;13.608;2023-04-06T09:54:52;7.38;;;3.67;;
52188;SDS011;38162;45.926;13.608;2023-04-06T10:02:56;7.95;;;3.78;;
52188;SDS011;38162;45.926;13.608;2023-04-06T10:05:02;6.07;;;4.00;;
52188;SDS011;38162;45.926;13.608;2023-04-06T10:07:31;5.47;;;4.00;;
52188;SDS011;38162;45.926;13.608;2023-04-06T10:09:57;7.68;;;4.03;;
52188;SDS011;38162;45.926;13.608;2023-04-06T10:12:25;6.70;;;4.28;;
52188;SDS011;38162;45.926;13.608;2023-04-06T10:14:51;6.30;;;4.07;;
52188;SDS011;38162;45.926;13.608;2023-04-06T10:17:17;7.32;;;4.20;;
52188;SDS011;38162;45.926;13.608;2023-04-06T10:19:51;10.00;;;4.32;;
52188;SDS011;38162;45.926;13.608;2023-04-06T10:22:21;5.22;;;4.28;;
52188;SDS011;38162;45.926;13.608;2023-04-06T10:24:48;6.65;;;3.90;;
52188;SDS011;38162;45.926;13.608;2023-04-06T10:27:14;6.40;;;4.32;;
52188;SDS011;38162;45.926;13.608;2023-04-06T10:29:44;7.30;;;4.45;;
52188;SDS011;38162;45.926;13.608;2023-04-06T10:32:11;7.70;;;4.50;;
52188;SDS011;38162;45.926;13.608;2023-04-06T10:34:37;8.18;;;4.60;;
52188;SDS011;38162;45.926;13.608;2023-04-06T10:37:13;8.57;;;4.13;;
52188;SDS011;38162;45.926;13.608;2023-04-06T10:40:12;9.48;;;4.55;;
52188;SDS011;38162;45.926;13.608;2023-04-06T10:42:38;6.55;;;4.57;;
52188;SDS011;38162;45.926;13.608;2023-04-06T10:45:07;7.05;;;3.92;;
52188;SDS011;38162;45.926;13.608;2023-04-06T10:47:42;6.60;;;4.47;;
52188;SDS011;38162;45.926;13.608;2023-04-06T10:50:08;11.30;;;4.88;;
52188;SDS011;38162;45.926;13.608;2023-04-06T10:52:35;10.10;;;4.78;;
52188;SDS011;38162;45.926;13.608;2023-04-06T10:55:01;7.20;;;4.60;;
52188;SDS011;38162;45.926;13.608;2023-04-06T10:57:28;12.73;;;5.22;;
52188;SDS011;38162;45.926;13.608;2023-04-06T10:59:55;10.18;;;4.85;;
52188;SDS011;38162;45.926;13.608;2023-04-06T11:02:21;8.15;;;5.03;;
52188;SDS011;38162;45.926;13.608;2023-04-06T11:04:58;8.73;;;5.28;;
52188;SDS011;38162;45.926;13.608;2023-04-06T11:07:28;8.77;;;4.88;;
52188;SDS011;38162;45.926;13.608;2023-04-06T11:09:55;9.88;;;6.10;;
52188;SDS011;38162;45.926;13.608;2023-04-06T11:14:57;7.88;;;5.63;;
52188;SDS011;38162;45.926;13.608;2023-04-06T11:17:31;10.57;;;5.80;;
52188;SDS011;38162;45.926;13.608;2023-04-06T11:20:09;10.73;;;5.82;;
52188;SDS011;38162;45.926;13.608;2023-04-06T11:22:36;12.70;;;5.97;;
52188;SDS011;38162;45.926;13.608;2023-04-06T11:25:05;9.75;;;6.20;;
52188;SDS011;38162;45.926;13.608;2023-04-06T11:27:32;11.18;;;5.72;;
52188;SDS011;38162;45.926;13.608;2023-04-06T11:30:02;12.30;;;6.25;;
52188;SDS011;38162;45.926;13.608;2023-04-06T11:32:28;8.18;;;5.85;;
52188;SDS011;38162;45.926;13.608;2023-04-06T11:34:54;11.25;;;6.28;;
52188;SDS011;38162;45.926;13.608;2023-04-06T11:37:25;8.05;;;5.43;;
52188;SDS011;38162;45.926;13.608;2023-04-06T11:39:54;9.52;;;6.28;;
52188;SDS011;38162;45.926;13.608;2023-04-06T11:42:26;7.65;;;5.63;;
52188;SDS011;38162;45.926;13.608;2023-04-06T11:44:58;9.30;;;6.30;;
52188;SDS011;38162;45.926;13.608;2023-04-06T11:47:34;7.30;;;5.63;;
52188;SDS011;38162;45.926;13.608;2023-04-06T11:50:13;7.18;;;5.75;;
52188;SDS011;38162;45.926;13.608;2023-04-06T11:52:40;12.15;;;6.40;;
52188;SDS011;38162;45.926;13.608;2023-04-06T11:55:13;10.02;;;5.95;;
52188;SDS011;38162;45.926;13.608;2023-04-06T11:57:40;12.50;;;6.13;;
52188;SDS011;38162;45.926;13.608;2023-04-06T12:00:07;10.63;;;6.15;;
52188;SDS011;38162;45.926;13.608;2023-04-06T12:02:34;8.50;;;5.97;;
52188;SDS011;38162;45.926;13.608;2023-04-06T12:05:02;9.63;;;5.90;;
52188;SDS011;38162;45.926;13.608;2023-04-06T12:07:28;9.60;;;6.20;;
52188;SDS011;38162;45.926;13.608;2023-04-06T12:09:55;10.25;;;6.28;;
52188;SDS011;38162;45.926;13.608;2023-04-06T12:12:21;10.00;;;6.22;;
52188;SDS011;38162;45.926;13.608;2023-04-06T12:14:47;11.10;;;6.05;;
52188;SDS011;38162;45.926;13.608;2023-04-06T12:17:13;9.52;;;6.47;;
52188;SDS011;38162;45.926;13.608;2023-04-06T12:19:40;10.85;;;6.30;;
52188;SDS011;38162;45.926;13.608;2023-04-06T12:22:06;7.88;;;6.35;;
52188;SDS011;38162;45.926;13.608;2023-04-06T12:24:32;8.63;;;6.05;;
52188;SDS011;38162;45.926;13.608;2023-04-06T12:26:58;11.02;;;6.65;;
52188;SDS011;38162;45.926;13.608;2023-04-06T12:29:24;15.70;;;6.45;;
52188;SDS011;38162;45.926;13.608;2023-04-06T12:31:50;12.57;;;6.40;;
52188;SDS011;38162;45.926;13.608;2023-04-06T12:34:17;9.23;;;6.20;;
52188;SDS011;38162;45.926;13.608;2023-04-06T12:36:44;12.57;;;6.90;;
52188;SDS011;38162;45.926;13.608;2023-04-06T12:39:10;9.45;;;7.05;;
52188;SDS011;38162;45.926;13.608;2023-04-06T12:41:36;9.70;;;6.90;;
52188;SDS011;38162;45.926;13.608;2023-04-06T12:44:05;15.25;;;6.43;;
52188;SDS011;38162;45.926;13.608;2023-04-06T12:46:31;14.45;;;6.22;;
52188;SDS011;38162;45.926;13.608;2023-04-06T12:48:58;9.77;;;6.43;;
52188;SDS011;38162;45.926;13.608;2023-04-06T12:51:26;16.42;;;6.60;;
52188;SDS011;38162;45.926;13.608;2023-04-06T12:53:53;10.70;;;7.05;;
52188;SDS011;38162;45.926;13.608;2023-04-06T12:56:19;11.65;;;6.30;;
52188;SDS011;38162;45.926;13.608;2023-04-06T12:58:50;8.15;;;6.35;;
52188;SDS011;38162;45.926;13.608;2023-04-06T13:01:17;13.70;;;6.97;;
52188;SDS011;38162;45.926;13.608;2023-04-06T13:03:43;10.32;;;6.93;;
52188;SDS011;38162;45.926;13.608;2023-04-06T13:06:09;13.77;;;6.75;;
52188;SDS011;38162;45.926;13.608;2023-04-06T13:08:36;10.40;;;6.43;;
52188;SDS011;38162;45.926;13.608;2023-04-06T13:11:03;9.38;;;6.93;;
52188;SDS011;38162;45.926;13.608;2023-04-06T13:13:30;10.20;;;7.05;;
52188;SDS011;38162;45.926;13.608;2023-04-06T13:16:00;11.52;;;6.95;;
52188;SDS011;38162;45.926;13.608;2023-04-06T13:18:28;16.10;;;7.82;;
52188;SDS011;38162;45.926;13.608;2023-04-06T13:20:55;10.98;;;7.10;;
52188;SDS011;38162;45.926;13.608;2023-04-06T13:23:24;10.00;;;7.25;;
52188;SDS011;38162;45.926;13.608;2023-04-06T13:26:00;11.15;;;8.20;;
52188;SDS011;38162;45.926;13.608;2023-04-06T13:28:30;12.30;;;7.63;;
52188;SDS011;38162;45.926;13.608;2023-04-06T13:30:57;22.70;;;7.75;;
52188;SDS011;38162;45.926;13.608;2023-04-06T13:33:24;10.85;;;7.30;;
52188;SDS011;38162;45.926;13.608;2023-04-06T13:35:51;12.23;;;7.30;;
52188;SDS011;38162;45.926;13.608;2023-04-06T13:38:17;18.25;;;8.70;;
52188;SDS011;38162;45.926;13.608;2023-04-06T13:40:42;15.43;;;8.45;;
52188;SDS011;38162;45.926;13.608;2023-04-06T13:43:09;17.92;;;8.80;;
52188;SDS011;38162;45.926;13.608;2023-04-06T13:45:36;16.30;;;9.07;;
52188;SDS011;38162;45.926;13.608;2023-04-06T13:48:02;14.05;;;9.10;;
52188;SDS011;38162;45.926;13.608;2023-04-06T13:50:28;12.68;;;8.73;;
52188;SDS011;38162;45.926;13.608;2023-04-06T13:52:54;20.73;;;9.05;;
52188;SDS011;38162;45.926;13.608;2023-04-06T13:55:21;12.07;;;8.93;;
52188;SDS011;38162;45.926;13.608;2023-04-06T13:57:49;17.00;;;8.75;;
52188;SDS011;38162;45.926;13.608;2023-04-06T14:00:16;13.15;;;9.02;;
52188;SDS011;38162;45.926;13.608;2023-04-06T14:02:42;12.57;;;9.20;;
52188;SDS011;38162;45.926;13.608;2023-04-06T14:05:08;18.48;;;9.18;;
52188;SDS011;38162;45.926;13.608;2023-04-06T14:07:35;13.05;;;9.27;;
52188;SDS011;38162;45.926;13.608;2023-04-06T14:10:02;15.27;;;8.68;;
52188;SDS011;38162;45.926;13.608;2023-04-06T14:12:29;13.52;;;9.15;;
52188;SDS011;38162;45.926;13.608;2023-04-06T14:14:56;14.63;;;8.55;;
52188;SDS011;38162;45.926;13.608;2023-04-06T14:17:22;16.90;;;8.93;;
52188;SDS011;38162;45.926;13.608;2023-04-06T14:19:48;16.92;;;8.77;;
52188;SDS011;38162;45.926;13.608;2023-04-06T14:22:14;17.08;;;10.25;;
52188;SDS011;38162;45.926;13.608;2023-04-06T14:24:39;20.05;;;10.07;;
52188;SDS011;38162;45.926;13.608;2023-04-06T14:27:05;16.95;;;10.57;;
52188;SDS011;38162;45.926;13.608;2023-04-06T14:29:31;20.00;;;10.70;;
52188;SDS011;38162;45.926;13.608;2023-04-06T14:31:57;19.73;;;9.65;;
52188;SDS011;38162;45.926;13.608;2023-04-06T14:34:27;16.20;;;10.77;;
52188;SDS011;38162;45.926;13.608;2023-04-06T14:36:53;17.08;;;10.05;;